Terminal Aerodrome Forecast
Issued by NWS Grand Rapids, MI

Home | Current Version | Previous Version | Text Only | Print | Product List | Glossary On
Versions: 1 2 3 4 5 6 7 8 9 10 11 12 13 14 15 16 17 18 19 20 21 22
000
FTUS43 KGRR 300656 AAB
TAFGRR
TAF AMD
KGRR 300656Z 3007/0106 08004G22KT 5SM -RA BR OVC040
     FM300900 07016G22KT 5SM RA BR OVC030
     FM301400 07018KT 3SM RA BR OVC008
     FM010000 07011KT 2SM -RA BR VCTS OVC007CB=

USA.gov is the U.S. government's official web portal to all federal, state and local government web resources and services.